Time;durP1;ratioP1;P1;durP2;ratioP2;P2;SDS_P1;SDS_P2;PMS_P1;PMS_P2;Temp;Humidity;BMP_temperature;BMP_pressure;BME280_temperature;BME280_humidity;BME280_pressure;Samples;Min_cycle;Max_cycle;Signal;HPM_P1;HPM_P2
2021/06/28 00:00:16;;;;;;;6.20;1.40;;;16.10;72.90;;;;;;6093538;23;20006;-64
2021/06/28 00:02:42;;;;;;;7.30;1.80;;;16.10;72.90;;;;;;6093619;23;20319;-63
2021/06/28 00:05:12;;;;;;;3.72;1.30;;;16.10;72.90;;;;;;6092921;23;20002;-63
2021/06/28 00:07:38;;;;;;;4.95;1.30;;;16.10;73.00;;;;;;6093924;23;20029;-64
2021/06/28 00:10:06;;;;;;;7.95;2.42;;;16.10;73.00;;;;;;6092460;23;20018;-64
2021/06/28 00:12:33;;;;;;;5.25;1.17;;;16.10;73.00;;;;;;6093578;23;19999;-64
2021/06/28 00:15:00;;;;;;;4.95;1.58;;;16.10;73.00;;;;;;6092759;23;20014;-63
2021/06/28 00:17:27;;;;;;;5.10;1.83;;;16.10;73.20;;;;;;6093667;23;20423;-63
2021/06/28 00:19:54;;;;;;;5.40;2.30;;;16.10;73.20;;;;;;6093389;23;20002;-64
2021/06/28 00:22:20;;;;;;;5.00;2.03;;;16.10;73.20;;;;;;6093078;23;19998;-64
2021/06/28 00:24:46;;;;;;;7.13;1.83;;;16.20;73.30;;;;;;6093516;23;20002;-63
2021/06/28 00:27:13;;;;;;;4.55;1.50;;;16.20;73.40;;;;;;6092468;23;20811;-63
2021/06/28 00:29:39;;;;;;;4.30;1.25;;;16.10;73.30;;;;;;6093300;23;20009;-63
2021/06/28 00:32:06;;;;;;;5.43;1.33;;;16.10;73.40;;;;;;6092725;23;20003;-64
2021/06/28 00:34:32;;;;;;;6.72;1.70;;;16.10;73.40;;;;;;6093505;23;20006;-64
2021/06/28 00:36:59;;;;;;;4.22;1.05;;;16.10;73.40;;;;;;6093415;23;20003;-64
2021/06/28 00:39:25;;;;;;;3.03;1.40;;;16.20;73.40;;;;;;6092779;23;19999;-64
2021/06/28 00:41:52;;;;;;;4.30;1.70;;;16.20;73.40;;;;;;6093563;23;20454;-63
2021/06/28 00:44:18;;;;;;;6.07;1.58;;;16.10;73.40;;;;;;6092373;23;20009;-63
2021/06/28 00:46:45;;;;;;;5.93;1.90;;;16.20;73.50;;;;;;6093477;23;20050;-63
2021/06/28 00:49:11;;;;;;;4.25;1.25;;;16.10;73.50;;;;;;6092595;23;20005;-64
2021/06/28 00:51:38;;;;;;;9.20;1.67;;;16.10;73.60;;;;;;6093238;23;20014;-64
2021/06/28 00:54:05;;;;;;;6.38;1.55;;;16.20;73.70;;;;;;6092927;23;20030;-64
2021/06/28 00:56:31;;;;;;;5.55;1.35;;;16.10;73.70;;;;;;6093031;23;20062;-63
2021/06/28 00:59:00;;;;;;;6.20;1.23;;;16.10;73.70;;;;;;6093449;23;20086;-64
2021/06/28 01:01:26;;;;;;;6.47;1.40;;;16.10;73.70;;;;;;6092468;23;20024;-63
2021/06/28 01:03:53;;;;;;;3.67;1.08;;;16.10;73.70;;;;;;6093372;23;19999;-63
2021/06/28 01:06:19;;;;;;;6.68;1.25;;;16.20;73.70;;;;;;6092238;23;20017;-64
2021/06/28 01:08:46;;;;;;;5.55;1.73;;;16.20;73.70;;;;;;6093184;23;20019;-64
2021/06/28 01:11:13;;;;;;;3.78;2.17;;;16.10;73.70;;;;;;6092647;23;20069;-64
2021/06/28 01:13:41;;;;;;;5.35;1.65;;;16.20;73.70;;;;;;6093531;23;20120;-64
2021/06/28 01:16:08;;;;;;;4.25;1.27;;;16.10;73.70;;;;;;6092915;23;20423;-64
2021/06/28 01:18:36;;;;;;;9.70;2.00;;;16.20;73.80;;;;;;6092475;23;20439;-64
2021/06/28 01:21:03;;;;;;;6.03;1.50;;;16.20;73.80;;;;;;6094054;23;20007;-64
2021/06/28 01:23:31;;;;;;;5.15;1.50;;;16.10;73.70;;;;;;6094386;23;20009;-65
2021/06/28 01:26:07;;;;;;;5.82;1.38;;;16.20;73.90;;;;;;6095371;23;20003;-64
2021/06/28 01:28:34;;;;;;;7.35;1.48;;;16.10;73.80;;;;;;6094264;23;20331;-64
2021/06/28 01:31:02;;;;;;;5.20;1.40;;;16.10;73.80;;;;;;6093464;23;20334;-64
2021/06/28 01:33:29;;;;;;;6.03;1.38;;;16.10;73.80;;;;;;6094978;23;20049;-64
2021/06/28 01:35:56;;;;;;;7.57;1.52;;;16.10;74.00;;;;;;6094224;23;20006;-64
2021/06/28 01:38:23;;;;;;;6.00;2.20;;;16.10;73.90;;;;;;6095390;23;20391;-64
2021/06/28 01:40:51;;;;;;;7.55;1.10;;;16.10;73.90;;;;;;6094315;23;20005;-64
2021/06/28 01:43:18;;;;;;;6.15;2.40;;;16.10;73.90;;;;;;6095513;23;19999;-64
2021/06/28 01:45:48;;;;;;;5.72;1.85;;;16.10;73.90;;;;;;6094182;23;20002;-63
2021/06/28 01:48:14;;;;;;;4.70;1.48;;;16.20;74.10;;;;;;6095188;23;20447;-64
2021/06/28 01:50:42;;;;;;;5.18;1.40;;;16.10;74.00;;;;;;6094767;23;20006;-63
2021/06/28 01:53:09;;;;;;;4.28;2.03;;;16.10;74.00;;;;;;6094407;23;20010;-63
2021/06/28 01:55:37;;;;;;;4.28;1.85;;;16.10;74.10;;;;;;6095183;23;20065;-63
2021/06/28 01:58:06;;;;;;;6.28;1.60;;;16.10;74.10;;;;;;6094082;23;20003;-63
2021/06/28 02:00:39;;;;;;;4.82;1.25;;;16.10;74.10;;;;;;6094998;23;19999;-64
2021/06/28 02:03:17;;;;;;;5.85;1.35;;;16.10;74.10;;;;;;6093790;23;20064;-63
2021/06/28 02:05:47;;;;;;;4.60;0.98;;;16.10;74.10;;;;;;6094599;23;20398;-63
2021/06/28 02:08:16;;;;;;;9.68;1.90;;;16.10;74.10;;;;;;6094998;23;19999;-63
2021/06/28 02:10:49;;;;;;;3.92;1.45;;;16.10;74.10;;;;;;6093576;23;20018;-64
2021/06/28 02:13:20;;;;;;;6.13;1.60;;;16.10;74.20;;;;;;6094991;23;20006;-63
2021/06/28 02:15:47;;;;;;;5.90;2.15;;;16.00;74.20;;;;;;6093593;23;19999;-63
2021/06/28 02:18:13;;;;;;;3.22;1.50;;;16.00;74.30;;;;;;6094984;23;20005;-63
2021/06/28 02:20:40;;;;;;;5.88;2.13;;;16.00;74.40;;;;;;6094030;23;20028;-63
2021/06/28 02:23:24;;;;;;;5.07;1.75;;;16.00;74.40;;;;;;6094749;23;20010;-63
2021/06/28 02:26:05;;;;;;;7.35;2.30;;;16.00;74.40;;;;;;6095079;23;20033;-63
2021/06/28 02:28:35;;;;;;;5.95;1.70;;;16.00;74.50;;;;;;6093737;23;20419;-63
2021/06/28 02:31:05;;;;;;;5.60;1.55;;;16.00;74.40;;;;;;6094562;23;20010;-63
2021/06/28 02:33:32;;;;;;;8.55;1.55;;;16.00;74.40;;;;;;6093349;23;19998;-64
2021/06/28 02:35:59;;;;;;;5.07;1.55;;;16.00;74.50;;;;;;6094815;23;20085;-63
2021/06/28 02:38:26;;;;;;;6.97;2.72;;;16.00;74.60;;;;;;6092765;23;20013;-63
2021/06/28 02:40:54;;;;;;;5.72;1.10;;;16.00;74.50;;;;;;6093780;23;20457;-63
2021/06/28 02:43:22;;;;;;;9.38;2.10;;;16.00;74.60;;;;;;6094567;23;20378;-63
2021/06/28 02:45:49;;;;;;;3.38;1.60;;;15.90;74.60;;;;;;6093369;23;20009;-63
2021/06/28 02:48:15;;;;;;;6.28;1.60;;;16.00;74.70;;;;;;6094595;23;20006;-63
2021/06/28 02:50:42;;;;;;;8.80;3.08;;;16.00;74.70;;;;;;6093427;23;20098;-63
2021/06/28 02:53:09;;;;;;;5.07;1.35;;;16.00;74.60;;;;;;6094579;23;19999;-63
2021/06/28 02:55:36;;;;;;;6.97;1.63;;;16.00;74.70;;;;;;6094236;23;20003;-63
2021/06/28 02:58:04;;;;;;;5.40;1.70;;;15.90;74.70;;;;;;6093636;23;20009;-64
2021/06/28 03:00:31;;;;;;;4.63;1.60;;;16.00;74.80;;;;;;6094608;23;20431;-63
2021/06/28 03:02:59;;;;;;;7.28;1.58;;;15.90;75.40;;;;;;6093136;23;20023;-63
2021/06/28 03:05:26;;;;;;;5.80;1.30;;;15.90;74.80;;;;;;6094701;23;20089;-63
2021/06/28 03:07:54;;;;;;;4.90;1.50;;;15.90;74.90;;;;;;6093115;23;20445;-64
2021/06/28 03:10:21;;;;;;;6.63;1.80;;;15.90;74.90;;;;;;6094205;23;20022;-64
2021/06/28 03:12:47;;;;;;;4.68;2.47;;;15.90;74.90;;;;;;6093558;23;20796;-64
2021/06/28 03:15:16;;;;;;;8.77;3.53;;;15.90;75.00;;;;;;6093862;23;20069;-63
2021/06/28 03:17:43;;;;;;;8.27;4.35;;;15.90;75.00;;;;;;6094400;23;20089;-64
2021/06/28 03:20:12;;;;;;;8.15;4.18;;;15.90;75.20;;;;;;6093234;23;20081;-64
2021/06/28 03:22:40;;;;;;;6.43;2.92;;;15.90;75.20;;;;;;6094250;23;20007;-63
2021/06/28 03:25:10;;;;;;;6.15;3.13;;;15.90;75.30;;;;;;6093204;23;20006;-64
2021/06/28 03:27:37;;;;;;;6.75;2.25;;;15.90;75.40;;;;;;6094059;23;20003;-64
2021/06/28 03:30:10;;;;;;;5.32;2.53;;;15.90;75.50;;;;;;6093300;23;20053;-64
2021/06/28 03:32:36;;;;;;;7.65;2.20;;;15.90;75.70;;;;;;6093416;23;20014;-64
2021/06/28 03:35:03;;;;;;;6.75;2.97;;;15.90;75.80;;;;;;6094481;23;20486;-65
2021/06/28 03:37:30;;;;;;;5.50;2.75;;;15.90;75.90;;;;;;6092766;23;19998;-64
2021/06/28 03:39:56;;;;;;;5.25;1.70;;;15.90;75.90;;;;;;6093821;23;20121;-64
2021/06/28 03:42:23;;;;;;;4.30;1.55;;;15.80;76.60;;;;;;6092766;23;20427;-64
2021/06/28 03:44:49;;;;;;;9.65;1.90;;;15.80;76.00;;;;;;6093639;23;20494;-63
2021/06/28 03:47:16;;;;;;;7.57;1.80;;;15.80;76.10;;;;;;6093529;23;20469;-64
2021/06/28 03:49:42;;;;;;;7.75;2.40;;;15.80;76.20;;;;;;6093493;23;20009;-66
2021/06/28 03:52:09;;;;;;;7.32;2.22;;;15.80;76.30;;;;;;6094112;23;20090;-65
2021/06/28 03:54:36;;;;;;;8.68;1.85;;;15.80;76.40;;;;;;6092686;23;19994;-66
2021/06/28 03:57:02;;;;;;;19.08;6.05;;;15.80;76.50;;;;;;6093799;23;20002;-66
2021/06/28 03:59:29;;;;;;;10.93;4.85;;;15.80;76.60;;;;;;6092576;23;20009;-66
2021/06/28 04:01:55;;;;;;;10.27;4.75;;;15.80;76.60;;;;;;6093518;23;20002;-66
2021/06/28 04:04:22;;;;;;;6.22;2.75;;;15.80;76.60;;;;;;6092638;23;20011;-66
2021/06/28 04:06:48;;;;;;;5.03;2.53;;;15.80;76.70;;;;;;6094036;23;20002;-66
2021/06/28 04:09:14;;;;;;;6.15;2.50;;;15.80;76.80;;;;;;6093156;23;20022;-67
2021/06/28 04:11:41;;;;;;;5.47;2.47;;;15.80;76.90;;;;;;6092968;23;20112;-67
2021/06/28 04:14:07;;;;;;;9.05;2.75;;;15.80;77.00;;;;;;6093752;23;20078;-66
2021/06/28 04:16:34;;;;;;;7.18;2.20;;;15.80;77.10;;;;;;6092473;23;20006;-66
2021/06/28 04:19:00;;;;;;;6.63;1.50;;;15.80;77.10;;;;;;6093512;23;20013;-67
2021/06/28 04:21:27;;;;;;;5.32;2.67;;;15.80;77.10;;;;;;6092701;23;20002;-67
2021/06/28 04:23:53;;;;;;;5.72;1.80;;;15.80;77.20;;;;;;6093721;23;20062;-66
2021/06/28 04:26:20;;;;;;;2.85;1.35;;;15.80;77.30;;;;;;6092880;23;20022;-66
2021/06/28 04:28:46;;;;;;;5.15;1.73;;;15.80;77.30;;;;;;6093549;23;19998;-66
2021/06/28 04:31:13;;;;;;;5.68;1.15;;;15.80;77.40;;;;;;6093422;23;20021;-67
2021/06/28 04:33:39;;;;;;;6.45;1.60;;;15.80;77.50;;;;;;6092464;23;20077;-66
2021/06/28 04:36:06;;;;;;;4.22;2.08;;;15.80;77.50;;;;;;6093456;23;20014;-67
2021/06/28 04:38:32;;;;;;;6.72;1.73;;;15.70;77.50;;;;;;6091897;23;20003;-67
2021/06/28 04:40:59;;;;;;;8.48;2.67;;;15.70;77.50;;;;;;6093264;23;20003;-66
2021/06/28 04:43:25;;;;;;;4.22;1.50;;;15.70;77.60;;;;;;6092669;23;20078;-66
2021/06/28 04:45:52;;;;;;;7.32;1.75;;;15.80;77.70;;;;;;6093099;23;20033;-62
2021/06/28 04:48:19;;;;;;;9.88;2.80;;;15.80;77.80;;;;;;6093038;23;19999;-66
2021/06/28 04:50:46;;;;;;;15.07;8.80;;;15.70;77.90;;;;;;6092771;23;20014;-66
2021/06/28 04:53:13;;;;;;;17.30;5.50;;;15.70;77.90;;;;;;6093832;23;20029;-63
2021/06/28 04:55:39;;;;;;;8.60;4.10;;;15.70;78.00;;;;;;6092213;23;20081;-64
2021/06/28 04:58:06;;;;;;;8.90;4.93;;;15.70;78.10;;;;;;6093745;23;20042;-63
2021/06/28 05:00:33;;;;;;;9.60;4.70;;;15.70;78.10;;;;;;6092351;23;20053;-63
2021/06/28 05:02:59;;;;;;;6.18;2.58;;;15.70;78.20;;;;;;6093975;23;20435;-63
2021/06/28 05:05:26;;;;;;;8.10;2.58;;;15.70;78.20;;;;;;6093128;23;20034;-66
2021/06/28 05:07:53;;;;;;;9.32;3.55;;;15.70;78.20;;;;;;6093033;23;20573;-63
2021/06/28 05:10:19;;;;;;;6.60;2.00;;;15.70;78.30;;;;;;6093336;23;20014;-63
2021/06/28 05:12:46;;;;;;;7.05;2.80;;;15.70;78.30;;;;;;6092737;23;20066;-63
2021/06/28 05:15:14;;;;;;;6.10;1.92;;;15.70;78.30;;;;;;6091939;23;20003;-62
2021/06/28 05:17:42;;;;;;;7.57;2.17;;;15.70;78.40;;;;;;6092352;23;20040;-63
2021/06/28 05:20:11;;;;;;;6.72;2.35;;;15.70;78.50;;;;;;6093587;23;20438;-63
2021/06/28 05:22:38;;;;;;;9.27;3.38;;;15.70;78.80;;;;;;6093131;23;20037;-64
2021/06/28 05:25:06;;;;;;;19.88;9.80;;;15.70;82.20;;;;;;6093137;23;20070;-63
2021/06/28 05:27:34;;;;;;;26.02;12.55;;;15.60;84.80;;;;;;6093506;23;20034;-63
2021/06/28 05:30:03;;;;;;;22.65;9.80;;;15.60;85.20;;;;;;6092255;23;20013;-63
2021/06/28 05:32:30;;;;;;;14.73;7.70;;;15.60;85.30;;;;;;6093427;23;20002;-64
2021/06/28 05:34:57;;;;;;;13.02;4.45;;;15.60;85.00;;;;;;6092259;23;20008;-63
2021/06/28 05:37:23;;;;;;;15.32;4.90;;;15.60;84.70;;;;;;6094110;23;20002;-62
2021/06/28 05:39:50;;;;;;;8.32;3.47;;;15.60;84.60;;;;;;6092627;23;19999;-63
2021/06/28 05:42:17;;;;;;;11.52;4.45;;;15.60;84.60;;;;;;6093153;23;20006;-63
2021/06/28 05:44:44;;;;;;;7.65;1.77;;;15.60;84.90;;;;;;6093531;23;20135;-66
2021/06/28 05:47:13;;;;;;;6.80;3.15;;;15.70;85.20;;;;;;6092695;23;19990;-63
2021/06/28 05:49:42;;;;;;;6.90;1.90;;;15.70;85.40;;;;;;6093435;23;20005;-64
2021/06/28 05:52:09;;;;;;;11.07;2.35;;;15.70;85.50;;;;;;6092091;23;20057;-63
2021/06/28 05:54:37;;;;;;;7.53;2.40;;;15.70;85.50;;;;;;6093432;23;20495;-62
2021/06/28 05:57:04;;;;;;;10.63;4.28;;;15.70;85.30;;;;;;6092839;23;20007;-64
2021/06/28 05:59:30;;;;;;;8.30;2.10;;;15.70;85.10;;;;;;6093251;23;20038;-64
2021/06/28 06:01:57;;;;;;;8.27;2.33;;;15.70;84.90;;;;;;6093608;23;20006;-64
2021/06/28 06:04:24;;;;;;;7.75;1.90;;;15.70;84.60;;;;;;6092586;23;20078;-63
2021/06/28 06:06:51;;;;;;;6.25;2.00;;;15.70;84.50;;;;;;6093417;23;20467;-66
2021/06/28 06:09:17;;;;;;;6.40;2.30;;;15.80;84.50;;;;;;6093408;23;20062;-61
2021/06/28 06:11:44;;;;;;;4.68;2.20;;;15.70;84.40;;;;;;6095228;23;20391;-66
2021/06/28 06:14:10;;;;;;;7.53;2.78;;;15.70;84.50;;;;;;6091943;23;20006;-66
2021/06/28 06:16:37;;;;;;;16.83;11.27;;;15.80;84.80;;;;;;6095115;23;20014;-65
2021/06/28 06:19:05;;;;;;;14.90;9.43;;;15.80;84.90;;;;;;6094574;23;20477;-65
2021/06/28 06:21:32;;;;;;;12.68;7.43;;;15.80;85.10;;;;;;6094648;23;20006;-64
2021/06/28 06:23:59;;;;;;;11.77;6.00;;;15.80;85.20;;;;;;6095159;23;20009;-64
2021/06/28 06:26:25;;;;;;;11.35;4.78;;;15.80;85.20;;;;;;6093783;23;19998;-64
2021/06/28 06:28:52;;;;;;;11.77;4.15;;;15.80;85.30;;;;;;6093773;23;20007;-64
2021/06/28 06:31:21;;;;;;;6.70;3.42;;;15.80;85.30;;;;;;6093587;23;20010;-65
2021/06/28 06:33:48;;;;;;;6.45;2.40;;;15.80;85.30;;;;;;6095061;23;20192;-65
2021/06/28 06:36:54;;;;;;;9.20;2.53;;;15.80;85.40;;;;;;6092695;23;20009;-65
2021/06/28 06:40:01;;;;;;;9.00;2.13;;;15.80;85.40;;;;;;6092911;23;20458;-66
2021/06/28 06:43:07;;;;;;;12.23;3.30;;;15.80;85.50;;;;;;6091149;23;20011;-63
2021/06/28 06:46:10;;;;;;;11.25;2.70;;;15.80;85.40;;;;;;6090815;23;20069;-67
2021/06/28 06:48:37;;;;;;;6.25;1.55;;;15.80;85.40;;;;;;6089415;23;20553;-64
2021/06/28 06:51:03;;;;;;;5.90;2.30;;;15.80;85.40;;;;;;6093129;23;20101;-66
2021/06/28 06:53:32;;;;;;;5.80;1.90;;;15.80;85.40;;;;;;6092188;23;20006;-65
2021/06/28 06:56:38;;;;;;;5.63;1.60;;;15.80;85.40;;;;;;6085678;23;20073;-65
2021/06/28 06:59:44;;;;;;;9.23;2.40;;;15.80;85.30;;;;;;6090611;23;20470;-66
2021/06/28 07:02:31;;;;;;;8.93;3.50;;;15.80;85.30;;;;;;6090307;23;20058;-65
2021/06/28 07:05:37;;;;;;;5.25;2.08;;;15.80;85.20;;;;;;6087153;23;20458;-65
2021/06/28 07:08:43;;;;;;;6.10;2.22;;;15.80;84.90;;;;;;6092621;23;20635;-64
2021/06/28 07:11:49;;;;;;;6.22;2.13;;;15.80;84.60;;;;;;6090419;23;20046;-64
2021/06/28 07:14:55;;;;;;;7.40;1.52;;;15.80;84.40;;;;;;6087039;23;20368;-63
2021/06/28 07:18:01;;;;;;;6.00;1.90;;;15.80;84.10;;;;;;6093545;23;20006;-67
2021/06/28 07:21:07;;;;;;;8.93;1.92;;;15.80;84.00;;;;;;6093624;23;20002;-67
2021/06/28 07:24:13;;;;;;;9.50;3.05;;;15.80;83.90;;;;;;6089869;23;20034;-65
2021/06/28 07:26:40;;;;;;;10.13;3.30;;;15.70;83.80;;;;;;6091826;23;20327;-64
2021/06/28 07:29:46;;;;;;;4.60;1.60;;;15.70;83.70;;;;;;6093929;23;20496;-64
2021/06/28 07:32:53;;;;;;;8.25;2.65;;;15.80;83.70;;;;;;6090498;23;20014;-66
2021/06/28 07:35:59;;;;;;;9.43;4.90;;;15.70;83.50;;;;;;6090354;23;20030;-66
2021/06/28 07:39:05;;;;;;;8.88;4.63;;;15.70;83.50;;;;;;6093403;23;19999;-69
2021/06/28 07:42:12;;;;;;;7.07;3.30;;;15.80;83.40;;;;;;6092546;23;20006;-67
2021/06/28 07:45:18;;;;;;;14.98;3.47;;;15.80;83.40;;;;;;6086676;23;20380;-67
2021/06/28 07:48:25;;;;;;;7.43;2.65;;;15.80;83.40;;;;;;6090806;23;20029;-66
2021/06/28 07:51:35;;;;;;;12.95;3.95;;;15.70;83.30;;;;;;6092355;23;20335;-65
2021/06/28 07:54:44;;;;;;;9.45;4.05;;;15.80;83.30;;;;;;6089567;23;20003;-68
2021/06/28 07:57:50;;;;;;;13.82;4.32;;;15.70;83.30;;;;;;6090543;23;20430;-66
2021/06/28 08:00:56;;;;;;;10.90;2.90;;;15.80;83.30;;;;;;6092055;23;19998;-64
2021/06/28 08:04:02;;;;;;;6.20;3.47;;;15.70;83.30;;;;;;6089351;23;20089;-65
2021/06/28 08:07:09;;;;;;;11.85;6.18;;;15.70;83.20;;;;;;6089031;23;20006;-65
2021/06/28 08:10:15;;;;;;;12.27;4.50;;;15.70;83.10;;;;;;6090963;23;20118;-64
2021/06/28 08:13:21;;;;;;;7.97;3.45;;;15.70;83.10;;;;;;6089406;23;20017;-67
2021/06/28 08:16:27;;;;;;;10.18;3.45;;;15.70;83.10;;;;;;6091726;23;20002;-65
2021/06/28 08:18:54;;;;;;;8.38;2.58;;;15.70;83.10;;;;;;6090957;23;20030;-66
2021/06/28 08:21:21;;;;;;;17.48;3.30;;;15.70;83.10;;;;;;6092575;23;20006;-66
2021/06/28 08:23:48;;;;;;;6.30;2.25;;;15.70;83.00;;;;;;6087563;23;20002;-67
2021/06/28 08:26:16;;;;;;;9.57;2.70;;;15.70;83.00;;;;;;6092782;23;20029;-66
2021/06/28 08:28:45;;;;;;;10.88;3.35;;;15.70;83.00;;;;;;6090757;23;20439;-66
2021/06/28 08:31:13;;;;;;;10.05;2.80;;;15.70;83.00;;;;;;6091764;23;20025;-64
2021/06/28 08:33:40;;;;;;;9.18;3.28;;;15.70;83.00;;;;;;6089004;23;20010;-65
2021/06/28 08:36:07;;;;;;;10.13;5.47;;;15.70;82.90;;;;;;6090792;23;20010;-65
2021/06/28 08:38:34;;;;;;;13.70;5.15;;;15.70;82.90;;;;;;6091410;23;19998;-67
2021/06/28 08:41:01;;;;;;;15.85;3.80;;;15.70;82.90;;;;;;6091263;23;20029;-65
2021/06/28 08:43:28;;;;;;;10.82;2.67;;;15.70;82.80;;;;;;6089201;23;20003;-66
2021/06/28 08:45:55;;;;;;;6.78;2.47;;;15.70;82.80;;;;;;6091283;23;20335;-66
2021/06/28 08:48:22;;;;;;;9.93;3.10;;;15.70;82.60;;;;;;6091100;23;20308;-66
2021/06/28 08:50:52;;;;;;;14.50;3.10;;;15.70;82.50;;;;;;6091799;23;20017;-66
2021/06/28 08:53:21;;;;;;;10.80;3.47;;;15.70;82.40;;;;;;6087764;23;20066;-67
2021/06/28 08:55:48;;;;;;;8.13;2.90;;;15.70;82.40;;;;;;6092459;23;20026;-65
2021/06/28 08:58:14;;;;;;;11.02;3.28;;;15.70;82.40;;;;;;6091277;23;20077;-67
2021/06/28 09:00:41;;;;;;;8.27;2.63;;;15.70;82.40;;;;;;6091408;23;20017;-67
2021/06/28 09:03:09;;;;;;;7.75;2.63;;;15.70;82.50;;;;;;6088070;23;20082;-66
2021/06/28 09:06:03;;;;;;;5.93;2.47;;;15.70;82.50;;;;;;6092116;23;20014;-65
2021/06/28 09:08:32;;;;;;;11.98;2.30;;;15.70;82.70;;;;;;6091954;23;20025;-65
2021/06/28 09:10:58;;;;;;;5.88;1.90;;;15.70;82.60;;;;;;6090176;23;20069;-67
2021/06/28 09:13:43;;;;;;;9.73;2.80;;;15.70;82.60;;;;;;6091961;23;20333;-66
2021/06/28 09:16:27;;;;;;;8.80;2.25;;;15.70;82.60;;;;;;6090231;23;20010;-70
2021/06/28 09:19:16;;;;;;;4.30;1.55;;;15.70;82.60;;;;;;6091061;23;20050;-66
2021/06/28 09:21:55;;;;;;;9.10;2.58;;;15.70;82.50;;;;;;6091800;23;20009;-66
2021/06/28 09:24:31;;;;;;;10.70;2.50;;;15.80;82.50;;;;;;6090340;23;20082;-68
2021/06/28 09:27:15;;;;;;;12.15;2.67;;;15.70;82.50;;;;;;6092387;23;20003;-67
2021/06/28 09:29:55;;;;;;;8.23;2.15;;;15.70;82.50;;;;;;6090456;23;20445;-68
2021/06/28 09:32:23;;;;;;;17.23;3.67;;;15.80;82.60;;;;;;6090817;23;20037;-66
2021/06/28 09:34:53;;;;;;;7.47;2.15;;;15.80;82.60;;;;;;6091740;23;20471;-65
2021/06/28 09:37:26;;;;;;;7.57;2.15;;;15.70;82.50;;;;;;6090620;23;20050;-66
2021/06/28 09:39:55;;;;;;;8.85;3.25;;;15.80;82.60;;;;;;6091966;23;20014;-66
2021/06/28 09:42:28;;;;;;;6.63;2.10;;;15.80;82.60;;;;;;6091210;23;20081;-66
2021/06/28 09:45:04;;;;;;;7.38;2.35;;;15.80;82.70;;;;;;6093267;23;20323;-66
2021/06/28 09:47:33;;;;;;;8.15;2.42;;;15.80;82.70;;;;;;6094676;23;20097;-67
2021/06/28 09:50:16;;;;;;;15.60;9.60;;;15.80;82.70;;;;;;6092159;23;20039;-67
2021/06/28 09:52:51;;;;;;;18.70;10.88;;;15.80;82.70;;;;;;6091759;23;20510;-67
2021/06/28 09:55:26;;;;;;;14.73;9.13;;;15.80;82.60;;;;;;6093195;23;20443;-67
2021/06/28 09:58:13;;;;;;;13.77;6.47;;;15.80;82.60;;;;;;6093943;23;20029;-66
2021/06/28 10:00:40;;;;;;;10.80;4.03;;;15.90;82.60;;;;;;6093656;23;20288;-67
2021/06/28 10:03:23;;;;;;;9.77;3.78;;;15.90;82.60;;;;;;6092840;23;20011;-68
2021/06/28 10:06:07;;;;;;;10.32;3.40;;;15.90;82.50;;;;;;6092142;23;20060;-68
2021/06/28 10:08:35;;;;;;;8.18;2.90;;;15.90;82.40;;;;;;6093039;23;20427;-67
2021/06/28 10:11:12;;;;;;;23.27;5.68;;;15.80;82.20;;;;;;6092797;23;20084;-65
2021/06/28 10:13:39;;;;;;;9.20;2.60;;;15.90;82.10;;;;;;6093785;23;20093;-68
2021/06/28 10:16:06;;;;;;;4.00;2.20;;;15.90;82.00;;;;;;6092797;23;20009;-65
2021/06/28 10:18:33;;;;;;;10.10;2.30;;;15.90;81.90;;;;;;6093564;23;20033;-65
2021/06/28 10:20:59;;;;;;;8.55;2.13;;;15.90;81.80;;;;;;6092971;23;20331;-66
2021/06/28 10:23:26;;;;;;;8.15;2.25;;;15.90;81.80;;;;;;6093800;23;20002;-67
2021/06/28 10:25:53;;;;;;;6.72;1.63;;;15.90;81.70;;;;;;6093589;23;20002;-68
2021/06/28 10:28:20;;;;;;;5.57;2.72;;;15.90;81.70;;;;;;6093254;23;20004;-66
2021/06/28 10:30:47;;;;;;;6.60;3.00;;;15.90;81.70;;;;;;6093029;23;20034;-66
2021/06/28 10:33:53;;;;;;;15.02;3.35;;;15.90;81.70;;;;;;6085684;23;20006;-67
2021/06/28 10:37:01;;;;;;;13.57;3.35;;;15.90;82.30;;;;;;6092193;23;20012;-66
2021/06/28 10:40:08;;;;;;;10.25;4.32;;;15.90;81.70;;;;;;6093670;23;20072;-66
2021/06/28 10:43:14;;;;;;;9.07;2.97;;;15.90;81.70;;;;;;6090341;23;20016;-67
2021/06/28 10:46:23;;;;;;;6.03;3.33;;;15.90;81.70;;;;;;6092266;23;20085;-66
2021/06/28 10:49:29;;;;;;;10.32;3.63;;;15.90;81.70;;;;;;6093493;23;20134;-68
2021/06/28 10:52:33;;;;;;;7.13;2.70;;;15.90;81.70;;;;;;6092595;23;20014;-67
2021/06/28 10:55:20;;;;;;;10.05;2.55;;;15.90;81.80;;;;;;6091746;23;20411;-65
2021/06/28 10:58:26;;;;;;;10.82;2.38;;;16.00;81.80;;;;;;6093312;23;20002;-66
2021/06/28 11:01:32;;;;;;;6.90;2.83;;;15.90;81.80;;;;;;6092394;23;20019;-66
2021/06/28 11:04:45;;;;;;;14.02;3.03;;;16.00;81.90;;;;;;6089714;23;20733;-66
2021/06/28 11:07:44;;;;;;;6.93;2.40;;;15.90;81.80;;;;;;6064552;23;20293;-72
2021/06/28 11:10:55;;;;;;;17.02;3.53;;;15.90;81.80;;;;;;6092424;23;20011;-68
2021/06/28 11:13:37;;;;;;;9.43;2.95;;;15.90;81.80;;;;;;6089911;23;20034;-67
2021/06/28 11:16:29;;;;;;;12.32;3.25;;;16.00;82.00;;;;;;6091833;23;20417;-71
2021/06/28 11:18:56;;;;;;;7.63;2.35;;;15.90;82.10;;;;;;6093140;23;19998;-70
2021/06/28 11:21:41;;;;;;;9.45;3.03;;;16.00;82.20;;;;;;6091479;23;20013;-71
2021/06/28 11:24:08;;;;;;;11.85;2.70;;;16.00;82.30;;;;;;6091131;23;20044;-73
2021/06/28 11:26:36;;;;;;;9.77;2.50;;;16.00;82.20;;;;;;6092746;23;20002;-67
2021/06/28 11:29:04;;;;;;;10.80;3.15;;;16.00;82.20;;;;;;6092566;23;20006;-67
2021/06/28 11:31:31;;;;;;;9.80;2.53;;;16.00;82.20;;;;;;6092381;23;20010;-67
2021/06/28 11:34:37;;;;;;;13.45;3.47;;;16.10;82.30;;;;;;6090792;23;20450;-69
2021/06/28 11:37:43;;;;;;;6.60;2.42;;;16.10;82.30;;;;;;6092631;23;20002;-71
2021/06/28 11:40:54;;;;;;;10.63;2.75;;;16.10;82.30;;;;;;6088647;23;20006;-70
2021/06/28 11:43:52;;;;;;;8.38;3.22;;;16.10;82.20;;;;;;6089749;23;20013;-68
2021/06/28 11:46:26;;;;;;;12.98;3.47;;;16.10;82.10;;;;;;6090234;23;20002;-68
2021/06/28 11:49:06;;;;;;;8.93;3.38;;;16.10;81.90;;;;;;6090679;23;20003;-68
2021/06/28 11:51:44;;;;;;;12.90;3.83;;;16.10;81.70;;;;;;6087834;23;20058;-76
2021/06/28 11:54:18;;;;;;;7.47;3.28;;;16.10;81.50;;;;;;6085939;23;20014;-67
2021/06/28 11:56:46;;;;;;;11.25;3.28;;;16.10;81.20;;;;;;6090400;23;20006;-68
2021/06/28 11:59:55;;;;;;;7.13;2.25;;;16.10;81.00;;;;;;6089994;23;20006;-68
2021/06/28 12:03:01;;;;;;;8.48;2.88;;;16.00;80.20;;;;;;6089671;23;20082;-68
2021/06/28 12:06:08;;;;;;;8.27;2.38;;;16.00;79.50;;;;;;6090983;23;20002;-68
2021/06/28 12:09:20;;;;;;;11.60;2.55;;;16.00;79.00;;;;;;6090379;23;20019;-67
2021/06/28 12:12:28;;;;;;;6.10;2.45;;;15.90;78.50;;;;;;6089810;23;20019;-67
2021/06/28 12:15:36;;;;;;;9.80;2.53;;;15.90;78.30;;;;;;6114786;23;20007;-67
2021/06/28 12:18:47;;;;;;;7.50;2.33;;;15.90;78.10;;;;;;6088302;23;20077;-66
2021/06/28 12:21:53;;;;;;;7.82;2.28;;;15.90;78.10;;;;;;6089876;23;20003;-66
2021/06/28 12:24:21;;;;;;;6.85;2.25;;;15.90;78.20;;;;;;6092100;23;20006;-66
2021/06/28 12:27:04;;;;;;;9.35;1.80;;;15.90;78.20;;;;;;6091223;23;20026;-67
2021/06/28 12:29:33;;;;;;;6.80;2.25;;;15.90;78.30;;;;;;6090709;23;20053;-67
2021/06/28 12:32:22;;;;;;;8.70;2.38;;;15.90;78.50;;;;;;6089734;23;20014;-67
2021/06/28 12:35:11;;;;;;;8.52;2.85;;;15.90;78.70;;;;;;6075946;23;20123;-67
2021/06/28 12:37:41;;;;;;;6.65;2.50;;;15.80;79.00;;;;;;6091575;23;20086;-66
2021/06/28 12:40:32;;;;;;;9.82;2.10;;;15.80;79.30;;;;;;6090883;23;19999;-66
2021/06/28 12:43:08;;;;;;;11.25;3.45;;;15.80;79.50;;;;;;6089548;23;20029;-66
2021/06/28 12:45:37;;;;;;;8.85;3.17;;;15.80;79.70;;;;;;6091571;23;20007;-67
2021/06/28 12:48:43;;;;;;;10.00;3.10;;;15.80;79.90;;;;;;6089571;23;20002;-66
2021/06/28 12:51:49;;;;;;;14.10;3.60;;;15.80;80.10;;;;;;6088532;23;20010;-68
2021/06/28 12:55:04;;;;;;;10.05;2.22;;;15.80;80.20;;;;;;6091051;23;20469;-66
2021/06/28 12:58:20;;;;;;;9.45;4.63;;;15.80;80.20;;;;;;6090800;23;20010;-67
2021/06/28 13:01:29;;;;;;;12.18;4.80;;;15.80;80.70;;;;;;6087977;23;20007;-67
2021/06/28 13:04:38;;;;;;;11.85;3.40;;;15.70;79.80;;;;;;6090370;23;20461;-67
2021/06/28 13:07:45;;;;;;;5.30;2.63;;;15.70;79.80;;;;;;6091381;23;20020;-69
2021/06/28 13:10:30;;;;;;;;;;;15.70;79.60;;;;;;6093510;23;20442;-67
2021/06/28 13:12:56;;;;;;;5.07;2.83;;;15.70;79.60;;;;;;6089799;23;19906;-66
2021/06/28 13:15:28;;;;;;;11.55;2.72;;;15.70;79.50;;;;;;6092455;23;20006;-67
2021/06/28 13:18:01;;;;;;;10.65;3.13;;;15.70;79.70;;;;;;6091489;23;20053;-67
2021/06/28 13:20:30;;;;;;;10.60;3.63;;;15.70;79.80;;;;;;6091418;23;20002;-67
2021/06/28 13:22:57;;;;;;;8.23;3.60;;;15.70;80.00;;;;;;6092533;23;19998;-67
2021/06/28 13:25:25;;;;;;;10.82;3.45;;;15.70;80.10;;;;;;6092733;23;20431;-68
2021/06/28 13:27:52;;;;;;;7.40;3.40;;;15.70;80.20;;;;;;6093037;23;20007;-68
2021/06/28 13:30:28;;;;;;;7.22;2.67;;;15.70;80.20;;;;;;6092057;23;20002;-67
2021/06/28 13:33:12;;;;;;;5.35;2.40;;;15.70;80.00;;;;;;6098118;23;20002;-66